sensor_id;sensor_type;location;lat;lon;timestamp;temperature;humidity
16907;DHT22;8570;52.380;4.654;2023-06-22T00:03:45;19.20;99.90
16907;DHT22;8570;52.380;4.654;2023-06-22T00:08:49;19.20;99.90
16907;DHT22;8570;52.380;4.654;2023-06-22T00:13:51;19.10;99.90
16907;DHT22;8570;52.380;4.654;2023-06-22T00:18:57;19.00;99.90
16907;DHT22;8570;52.380;4.654;2023-06-22T00:24:05;19.00;99.90
16907;DHT22;8570;52.380;4.654;2023-06-22T00:29:07;18.90;99.90
16907;DHT22;8570;52.380;4.654;2023-06-22T00:34:11;18.90;99.90
16907;DHT22;8570;52.380;4.654;2023-06-22T00:39:13;18.90;99.90
16907;DHT22;8570;52.380;4.654;2023-06-22T00:44:15;18.80;99.90
16907;DHT22;8570;52.380;4.654;2023-06-22T00:49:19;18.80;99.90
16907;DHT22;8570;52.380;4.654;2023-06-22T00:54:21;18.70;99.90
16907;DHT22;8570;52.380;4.654;2023-06-22T00:59:26;18.70;99.90
16907;DHT22;8570;52.380;4.654;2023-06-22T01:04:36;18.70;99.90
16907;DHT22;8570;52.380;4.654;2023-06-22T01:09:42;18.70;99.90
16907;DHT22;8570;52.380;4.654;2023-06-22T01:14:55;18.60;99.90
16907;DHT22;8570;52.380;4.654;2023-06-22T01:20:00;18.60;99.90
16907;DHT22;8570;52.380;4.654;2023-06-22T01:25:10;18.60;99.90
16907;DHT22;8570;52.380;4.654;2023-06-22T01:30:16;18.50;99.90
16907;DHT22;8570;52.380;4.654;2023-06-22T01:35:19;18.50;99.90
16907;DHT22;8570;52.380;4.654;2023-06-22T01:40:22;18.40;99.90
16907;DHT22;8570;52.380;4.654;2023-06-22T01:45:26;18.40;99.90
16907;DHT22;8570;52.380;4.654;2023-06-22T01:50:28;18.40;99.90
16907;DHT22;8570;52.380;4.654;2023-06-22T01:55:31;18.40;99.90
16907;DHT22;8570;52.380;4.654;2023-06-22T02:00:38;18.30;99.90
16907;DHT22;8570;52.380;4.654;2023-06-22T02:05:48;18.30;99.90
16907;DHT22;8570;52.380;4.654;2023-06-22T02:10:52;18.20;99.90
16907;DHT22;8570;52.380;4.654;2023-06-22T02:15:57;18.20;99.90
16907;DHT22;8570;52.380;4.654;2023-06-22T02:20:59;18.20;99.90
16907;DHT22;8570;52.380;4.654;2023-06-22T02:26:02;18.10;99.90
16907;DHT22;8570;52.380;4.654;2023-06-22T02:31:06;18.10;99.90
16907;DHT22;8570;52.380;4.654;2023-06-22T02:36:08;18.10;99.90
16907;DHT22;8570;52.380;4.654;2023-06-22T02:41:13;18.00;99.90
16907;DHT22;8570;52.380;4.654;2023-06-22T02:46:20;18.00;99.90
16907;DHT22;8570;52.380;4.654;2023-06-22T02:51:22;18.00;99.90
16907;DHT22;8570;52.380;4.654;2023-06-22T02:56:24;17.90;99.90
16907;DHT22;8570;52.380;4.654;2023-06-22T03:01:28;17.90;99.90
16907;DHT22;8570;52.380;4.654;2023-06-22T03:06:31;17.90;99.90
16907;DHT22;8570;52.380;4.654;2023-06-22T03:11:33;17.90;99.90
16907;DHT22;8570;52.380;4.654;2023-06-22T03:16:36;17.90;99.90
16907;DHT22;8570;52.380;4.654;2023-06-22T03:21:39;17.80;99.90
16907;DHT22;8570;52.380;4.654;2023-06-22T03:26:41;17.80;99.90
16907;DHT22;8570;52.380;4.654;2023-06-22T03:31:44;17.80;99.90
16907;DHT22;8570;52.380;4.654;2023-06-22T03:36:48;17.80;99.90
16907;DHT22;8570;52.380;4.654;2023-06-22T03:41:50;17.80;99.90
16907;DHT22;8570;52.380;4.654;2023-06-22T03:46:53;17.70;99.90
16907;DHT22;8570;52.380;4.654;2023-06-22T03:51:55;17.70;99.90
16907;DHT22;8570;52.380;4.654;2023-06-22T03:56:58;17.70;99.90
16907;DHT22;8570;52.380;4.654;2023-06-22T04:02:01;17.60;99.90
16907;DHT22;8570;52.380;4.654;2023-06-22T04:07:04;17.60;99.90
16907;DHT22;8570;52.380;4.654;2023-06-22T04:12:07;17.60;99.90
16907;DHT22;8570;52.380;4.654;2023-06-22T04:17:10;17.60;99.90
16907;DHT22;8570;52.380;4.654;2023-06-22T04:22:15;17.60;99.90
16907;DHT22;8570;52.380;4.654;2023-06-22T04:27:17;17.60;99.90
16907;DHT22;8570;52.380;4.654;2023-06-22T04:32:24;17.60;99.90
16907;DHT22;8570;52.380;4.654;2023-06-22T04:37:30;17.60;99.90
16907;DHT22;8570;52.380;4.654;2023-06-22T04:42:34;17.60;99.90
16907;DHT22;8570;52.380;4.654;2023-06-22T04:47:37;17.70;99.90
16907;DHT22;8570;52.380;4.654;2023-06-22T04:52:40;17.70;99.90
16907;DHT22;8570;52.380;4.654;2023-06-22T04:57:42;17.70;99.90
16907;DHT22;8570;52.380;4.654;2023-06-22T05:02:50;17.80;99.90
16907;DHT22;8570;52.380;4.654;2023-06-22T05:07:53;17.80;99.90
16907;DHT22;8570;52.380;4.654;2023-06-22T05:12:55;17.90;99.90
16907;DHT22;8570;52.380;4.654;2023-06-22T05:17:58;18.00;99.90
16907;DHT22;8570;52.380;4.654;2023-06-22T05:23:05;18.10;99.90
16907;DHT22;8570;52.380;4.654;2023-06-22T05:28:07;18.20;99.90
16907;DHT22;8570;52.380;4.654;2023-06-22T05:33:13;18.30;99.90
16907;DHT22;8570;52.380;4.654;2023-06-22T05:38:15;18.50;99.90
16907;DHT22;8570;52.380;4.654;2023-06-22T05:43:17;18.60;99.90
16907;DHT22;8570;52.380;4.654;2023-06-22T05:48:20;18.70;99.90
16907;DHT22;8570;52.380;4.654;2023-06-22T05:53:22;18.80;99.90
16907;DHT22;8570;52.380;4.654;2023-06-22T05:58:24;18.90;99.90
16907;DHT22;8570;52.380;4.654;2023-06-22T06:03:28;18.90;99.90
16907;DHT22;8570;52.380;4.654;2023-06-22T06:08:32;19.10;99.90
16907;DHT22;8570;52.380;4.654;2023-06-22T06:13:35;19.10;99.90
16907;DHT22;8570;52.380;4.654;2023-06-22T06:18:38;19.30;99.90
16907;DHT22;8570;52.380;4.654;2023-06-22T06:23:40;19.40;99.90
16907;DHT22;8570;52.380;4.654;2023-06-22T06:28:42;19.50;99.90
16907;DHT22;8570;52.380;4.654;2023-06-22T06:33:46;19.60;99.90
16907;DHT22;8570;52.380;4.654;2023-06-22T06:38:48;19.70;99.90
16907;DHT22;8570;52.380;4.654;2023-06-22T06:43:51;19.80;99.90
16907;DHT22;8570;52.380;4.654;2023-06-22T06:48:54;19.90;99.90
16907;DHT22;8570;52.380;4.654;2023-06-22T06:53:59;19.90;99.90
16907;DHT22;8570;52.380;4.654;2023-06-22T06:59:04;20.00;99.90
16907;DHT22;8570;52.380;4.654;2023-06-22T07:04:07;20.10;99.90
16907;DHT22;8570;52.380;4.654;2023-06-22T07:09:09;20.30;99.90
16907;DHT22;8570;52.380;4.654;2023-06-22T07:14:11;20.40;99.90
16907;DHT22;8570;52.380;4.654;2023-06-22T07:19:15;20.50;99.90
16907;DHT22;8570;52.380;4.654;2023-06-22T07:24:17;20.70;99.90
16907;DHT22;8570;52.380;4.654;2023-06-22T07:29:20;20.90;99.90
16907;DHT22;8570;52.380;4.654;2023-06-22T07:34:26;21.00;99.90
16907;DHT22;8570;52.380;4.654;2023-06-22T07:39:29;21.20;99.90
16907;DHT22;8570;52.380;4.654;2023-06-22T07:44:31;21.30;99.90
16907;DHT22;8570;52.380;4.654;2023-06-22T07:49:38;21.50;99.90
16907;DHT22;8570;52.380;4.654;2023-06-22T07:54:40;21.60;99.90
16907;DHT22;8570;52.380;4.654;2023-06-22T07:59:42;21.80;99.90
16907;DHT22;8570;52.380;4.654;2023-06-22T08:04:46;22.00;99.90
16907;DHT22;8570;52.380;4.654;2023-06-22T08:09:50;22.30;99.90
16907;DHT22;8570;52.380;4.654;2023-06-22T08:14:52;22.60;99.90
16907;DHT22;8570;52.380;4.654;2023-06-22T08:19:55;23.00;99.90
16907;DHT22;8570;52.380;4.654;2023-06-22T08:24:57;23.20;99.90
16907;DHT22;8570;52.380;4.654;2023-06-22T08:30:01;23.50;99.90
16907;DHT22;8570;52.380;4.654;2023-06-22T08:35:14;23.90;99.90
16907;DHT22;8570;52.380;4.654;2023-06-22T08:40:16;24.20;99.90
16907;DHT22;8570;52.380;4.654;2023-06-22T08:45:19;24.60;99.90
16907;DHT22;8570;52.380;4.654;2023-06-22T08:50:25;24.90;99.90
16907;DHT22;8570;52.380;4.654;2023-06-22T08:55:27;25.10;99.90
16907;DHT22;8570;52.380;4.654;2023-06-22T09:00:31;25.30;99.90
16907;DHT22;8570;52.380;4.654;2023-06-22T09:05:37;25.60;99.90
16907;DHT22;8570;52.380;4.654;2023-06-22T09:10:39;25.90;99.90
16907;DHT22;8570;52.380;4.654;2023-06-22T09:15:41;26.20;99.90
16907;DHT22;8570;52.380;4.654;2023-06-22T09:20:45;26.40;99.90
16907;DHT22;8570;52.380;4.654;2023-06-22T09:25:47;26.50;99.90
16907;DHT22;8570;52.380;4.654;2023-06-22T09:30:49;26.60;99.90
16907;DHT22;8570;52.380;4.654;2023-06-22T09:35:53;26.70;99.90
16907;DHT22;8570;52.380;4.654;2023-06-22T09:40:55;26.90;99.90
16907;DHT22;8570;52.380;4.654;2023-06-22T09:45:59;27.10;99.90
16907;DHT22;8570;52.380;4.654;2023-06-22T09:51:04;27.20;99.90
16907;DHT22;8570;52.380;4.654;2023-06-22T09:56:06;27.40;99.90
16907;DHT22;8570;52.380;4.654;2023-06-22T10:01:12;27.60;99.90
16907;DHT22;8570;52.380;4.654;2023-06-22T10:06:16;27.60;99.90
16907;DHT22;8570;52.380;4.654;2023-06-22T10:11:20;27.60;99.90
16907;DHT22;8570;52.380;4.654;2023-06-22T10:16:31;27.60;99.90
16907;DHT22;8570;52.380;4.654;2023-06-22T10:21:36;27.60;99.90
16907;DHT22;8570;52.380;4.654;2023-06-22T10:26:38;27.50;99.90
16907;DHT22;8570;52.380;4.654;2023-06-22T10:31:40;27.60;99.90
16907;DHT22;8570;52.380;4.654;2023-06-22T10:36:49;27.60;99.90
16907;DHT22;8570;52.380;4.654;2023-06-22T10:41:53;27.80;99.90
16907;DHT22;8570;52.380;4.654;2023-06-22T10:47:15;27.80;99.90
16907;DHT22;8570;52.380;4.654;2023-06-22T10:52:27;27.90;99.90
16907;DHT22;8570;52.380;4.654;2023-06-22T10:57:35;27.90;99.90
16907;DHT22;8570;52.380;4.654;2023-06-22T11:02:42;27.80;99.90
16907;DHT22;8570;52.380;4.654;2023-06-22T11:07:46;27.70;99.90
16907;DHT22;8570;52.380;4.654;2023-06-22T11:12:52;27.60;99.90
16907;DHT22;8570;52.380;4.654;2023-06-22T11:17:56;27.50;99.90
16907;DHT22;8570;52.380;4.654;2023-06-22T11:23:19;27.40;99.90
16907;DHT22;8570;52.380;4.654;2023-06-22T11:28:24;27.20;99.90
16907;DHT22;8570;52.380;4.654;2023-06-22T11:33:29;27.20;99.90
16907;DHT22;8570;52.380;4.654;2023-06-22T11:38:32;27.20;99.90
16907;DHT22;8570;52.380;4.654;2023-06-22T11:43:40;27.10;99.90
16907;DHT22;8570;52.380;4.654;2023-06-22T11:48:44;27.10;99.90
16907;DHT22;8570;52.380;4.654;2023-06-22T11:53:51;27.10;99.90
16907;DHT22;8570;52.380;4.654;2023-06-22T11:58:53;27.10;99.90
16907;DHT22;8570;52.380;4.654;2023-06-22T12:03:55;27.10;99.90
16907;DHT22;8570;52.380;4.654;2023-06-22T12:08:58;27.10;99.90
16907;DHT22;8570;52.380;4.654;2023-06-22T12:14:06;27.00;99.90
16907;DHT22;8570;52.380;4.654;2023-06-22T12:19:14;27.00;99.90
16907;DHT22;8570;52.380;4.654;2023-06-22T12:24:18;26.90;99.90
16907;DHT22;8570;52.380;4.654;2023-06-22T12:29:20;26.80;99.90
16907;DHT22;8570;52.380;4.654;2023-06-22T12:34:24;26.70;99.90
16907;DHT22;8570;52.380;4.654;2023-06-22T12:39:29;26.70;99.90
16907;DHT22;8570;52.380;4.654;2023-06-22T12:44:31;26.60;99.90
16907;DHT22;8570;52.380;4.654;2023-06-22T12:49:33;26.50;99.90
16907;DHT22;8570;52.380;4.654;2023-06-22T12:54:37;26.40;99.90
16907;DHT22;8570;52.380;4.654;2023-06-22T12:59:39;26.40;99.90
16907;DHT22;8570;52.380;4.654;2023-06-22T13:04:41;26.30;99.90
16907;DHT22;8570;52.380;4.654;2023-06-22T13:09:53;26.20;99.90
16907;DHT22;8570;52.380;4.654;2023-06-22T13:14:55;26.10;99.90
16907;DHT22;8570;52.380;4.654;2023-06-22T13:19:57;26.00;99.90
16907;DHT22;8570;52.380;4.654;2023-06-22T13:25:00;26.00;99.90
16907;DHT22;8570;52.380;4.654;2023-06-22T13:30:06;25.90;99.90
16907;DHT22;8570;52.380;4.654;2023-06-22T13:35:09;25.80;99.90
16907;DHT22;8570;52.380;4.654;2023-06-22T13:40:13;25.70;99.90
16907;DHT22;8570;52.380;4.654;2023-06-22T13:45:16;25.70;99.90
16907;DHT22;8570;52.380;4.654;2023-06-22T13:50:19;25.60;99.90
16907;DHT22;8570;52.380;4.654;2023-06-22T13:55:23;25.50;99.90
16907;DHT22;8570;52.380;4.654;2023-06-22T14:00:25;25.40;99.90
16907;DHT22;8570;52.380;4.654;2023-06-22T14:05:30;25.40;99.90
16907;DHT22;8570;52.380;4.654;2023-06-22T14:10:36;25.40;99.90
16907;DHT22;8570;52.380;4.654;2023-06-22T14:15:39;25.40;99.90
16907;DHT22;8570;52.380;4.654;2023-06-22T14:20:41;25.30;99.90
16907;DHT22;8570;52.380;4.654;2023-06-22T14:25:44;25.20;99.90
16907;DHT22;8570;52.380;4.654;2023-06-22T14:30:46;25.10;99.90
16907;DHT22;8570;52.380;4.654;2023-06-22T14:35:48;25.00;99.90
16907;DHT22;8570;52.380;4.654;2023-06-22T14:40:52;24.90;99.90
16907;DHT22;8570;52.380;4.654;2023-06-22T14:45:54;24.80;99.90
16907;DHT22;8570;52.380;4.654;2023-06-22T14:50:57;24.80;99.90
16907;DHT22;8570;52.380;4.654;2023-06-22T14:56:02;24.80;99.90
16907;DHT22;8570;52.380;4.654;2023-06-22T15:01:04;24.70;99.90
16907;DHT22;8570;52.380;4.654;2023-06-22T15:06:09;24.70;99.90
16907;DHT22;8570;52.380;4.654;2023-06-22T15:11:12;24.60;99.90
16907;DHT22;8570;52.380;4.654;2023-06-22T15:16:20;24.60;99.90
16907;DHT22;8570;52.380;4.654;2023-06-22T15:21:24;24.50;99.90
16907;DHT22;8570;52.380;4.654;2023-06-22T15:26:28;24.50;99.90
16907;DHT22;8570;52.380;4.654;2023-06-22T15:31:30;24.40;99.90
16907;DHT22;8570;52.380;4.654;2023-06-22T15:36:33;24.20;99.90
16907;DHT22;8570;52.380;4.654;2023-06-22T15:41:39;24.10;99.90
16907;DHT22;8570;52.380;4.654;2023-06-22T15:46:42;24.00;99.90
16907;DHT22;8570;52.380;4.654;2023-06-22T15:51:44;23.90;99.90
16907;DHT22;8570;52.380;4.654;2023-06-22T15:56:49;23.80;99.90
16907;DHT22;8570;52.380;4.654;2023-06-22T16:01:51;23.80;99.90
16907;DHT22;8570;52.380;4.654;2023-06-22T16:06:53;23.70;99.90
16907;DHT22;8570;52.380;4.654;2023-06-22T16:11:57;23.70;99.90
16907;DHT22;8570;52.380;4.654;2023-06-22T16:17:06;23.60;99.90
16907;DHT22;8570;52.380;4.654;2023-06-22T16:22:17;23.60;99.90
16907;DHT22;8570;52.380;4.654;2023-06-22T16:27:21;23.50;99.90
16907;DHT22;8570;52.380;4.654;2023-06-22T16:32:27;23.50;99.90
16907;DHT22;8570;52.380;4.654;2023-06-22T16:37:31;23.40;99.90
16907;DHT22;8570;52.380;4.654;2023-06-22T16:42:48;23.40;99.90
16907;DHT22;8570;52.380;4.654;2023-06-22T16:47:51;23.40;99.90
16907;DHT22;8570;52.380;4.654;2023-06-22T16:52:53;23.30;99.90
16907;DHT22;8570;52.380;4.654;2023-06-22T16:57:57;23.20;99.90
16907;DHT22;8570;52.380;4.654;2023-06-22T17:03:02;23.20;99.90
16907;DHT22;8570;52.380;4.654;2023-06-22T17:08:10;23.10;99.90
16907;DHT22;8570;52.380;4.654;2023-06-22T17:13:15;23.10;99.90
16907;DHT22;8570;52.380;4.654;2023-06-22T17:18:18;23.10;99.90
16907;DHT22;8570;52.380;4.654;2023-06-22T17:23:24;23.00;99.90
16907;DHT22;8570;52.380;4.654;2023-06-22T17:28:27;23.00;99.90
16907;DHT22;8570;52.380;4.654;2023-06-22T17:33:31;22.90;99.90
16907;DHT22;8570;52.380;4.654;2023-06-22T17:38:36;22.90;99.90
16907;DHT22;8570;52.380;4.654;2023-06-22T17:43:45;22.80;99.90
16907;DHT22;8570;52.380;4.654;2023-06-22T17:48:48;22.70;99.90
16907;DHT22;8570;52.380;4.654;2023-06-22T17:53:50;22.70;99.90
16907;DHT22;8570;52.380;4.654;2023-06-22T17:58:54;22.60;99.90
16907;DHT22;8570;52.380;4.654;2023-06-22T18:03:56;22.60;99.90
16907;DHT22;8570;52.380;4.654;2023-06-22T18:08:59;22.50;99.90
16907;DHT22;8570;52.380;4.654;2023-06-22T18:14:04;22.40;99.90
16907;DHT22;8570;52.380;4.654;2023-06-22T18:19:07;22.30;99.90
16907;DHT22;8570;52.380;4.654;2023-06-22T18:24:09;22.20;99.90
16907;DHT22;8570;52.380;4.654;2023-06-22T18:29:13;22.10;99.90
16907;DHT22;8570;52.380;4.654;2023-06-22T18:34:15;22.10;99.90
16907;DHT22;8570;52.380;4.654;2023-06-22T18:39:21;22.10;99.90
16907;DHT22;8570;52.380;4.654;2023-06-22T18:44:27;22.10;99.90
16907;DHT22;8570;52.380;4.654;2023-06-22T18:49:32;22.00;99.90
16907;DHT22;8570;52.380;4.654;2023-06-22T18:54:36;21.90;99.90
16907;DHT22;8570;52.380;4.654;2023-06-22T18:59:47;21.90;99.90
16907;DHT22;8570;52.380;4.654;2023-06-22T19:05:05;21.90;99.90
16907;DHT22;8570;52.380;4.654;2023-06-22T19:10:24;21.80;99.90
16907;DHT22;8570;52.380;4.654;2023-06-22T19:15:32;21.80;99.90
16907;DHT22;8570;52.380;4.654;2023-06-22T19:20:39;21.80;99.90
16907;DHT22;8570;52.380;4.654;2023-06-22T19:25:48;21.70;99.90
16907;DHT22;8570;52.380;4.654;2023-06-22T19:37:13;21.50;99.90
16907;DHT22;8570;52.380;4.654;2023-06-22T19:42:18;21.40;99.90
16907;DHT22;8570;52.380;4.654;2023-06-22T19:47:20;21.30;99.90
16907;DHT22;8570;52.380;4.654;2023-06-22T19:52:24;21.20;99.90
16907;DHT22;8570;52.380;4.654;2023-06-22T19:57:26;21.10;99.90
16907;DHT22;8570;52.380;4.654;2023-06-22T20:02:29;21.00;99.90
16907;DHT22;8570;52.380;4.654;2023-06-22T20:07:37;21.00;99.90
16907;DHT22;8570;52.380;4.654;2023-06-22T20:12:40;20.90;99.90
16907;DHT22;8570;52.380;4.654;2023-06-22T20:17:42;20.90;99.90
16907;DHT22;8570;52.380;4.654;2023-06-22T20:22:49;20.80;99.90
16907;DHT22;8570;52.380;4.654;2023-06-22T20:27:54;20.80;99.90
16907;DHT22;8570;52.380;4.654;2023-06-22T20:32:56;20.70;99.90
16907;DHT22;8570;52.380;4.654;2023-06-22T20:38:00;20.60;99.90
16907;DHT22;8570;52.380;4.654;2023-06-22T20:43:02;20.60;99.90
16907;DHT22;8570;52.380;4.654;2023-06-22T20:48:05;20.50;99.90
16907;DHT22;8570;52.380;4.654;2023-06-22T20:53:10;20.40;99.90
16907;DHT22;8570;52.380;4.654;2023-06-22T20:58:12;20.30;99.90
16907;DHT22;8570;52.380;4.654;2023-06-22T21:03:14;20.20;99.90
16907;DHT22;8570;52.380;4.654;2023-06-22T21:08:17;20.10;99.90
16907;DHT22;8570;52.380;4.654;2023-06-22T21:13:22;20.00;99.90
16907;DHT22;8570;52.380;4.654;2023-06-22T21:18:24;20.00;99.90
16907;DHT22;8570;52.380;4.654;2023-06-22T21:23:27;19.90;99.90
16907;DHT22;8570;52.380;4.654;2023-06-22T21:28:34;19.80;99.90
16907;DHT22;8570;52.380;4.654;2023-06-22T21:33:39;19.80;99.90
16907;DHT22;8570;52.380;4.654;2023-06-22T21:38:42;19.70;99.90
16907;DHT22;8570;52.380;4.654;2023-06-22T21:43:45;19.60;99.90
16907;DHT22;8570;52.380;4.654;2023-06-22T21:48:47;19.60;99.90
16907;DHT22;8570;52.380;4.654;2023-06-22T21:53:51;19.50;99.90
16907;DHT22;8570;52.380;4.654;2023-06-22T21:58:59;19.50;99.90
16907;DHT22;8570;52.380;4.654;2023-06-22T22:04:09;19.40;99.90
16907;DHT22;8570;52.380;4.654;2023-06-22T22:09:13;19.40;99.90
16907;DHT22;8570;52.380;4.654;2023-06-22T22:14:19;19.30;99.90
16907;DHT22;8570;52.380;4.654;2023-06-22T22:19:21;19.30;99.90
16907;DHT22;8570;52.380;4.654;2023-06-22T22:24:27;19.20;99.90
16907;DHT22;8570;52.380;4.654;2023-06-22T22:29:29;19.20;99.90
16907;DHT22;8570;52.380;4.654;2023-06-22T22:34:33;19.10;99.90
16907;DHT22;8570;52.380;4.654;2023-06-22T22:39:38;19.10;99.90
16907;DHT22;8570;52.380;4.654;2023-06-22T22:44:43;19.10;99.90
16907;DHT22;8570;52.380;4.654;2023-06-22T22:49:45;19.10;99.90
16907;DHT22;8570;52.380;4.654;2023-06-22T22:54:49;19.10;99.90
16907;DHT22;8570;52.380;4.654;2023-06-22T22:59:53;19.10;99.90
16907;DHT22;8570;52.380;4.654;2023-06-22T23:04:56;19.10;99.90
16907;DHT22;8570;52.380;4.654;2023-06-22T23:09:59;19.00;99.90
16907;DHT22;8570;52.380;4.654;2023-06-22T23:15:04;19.00;99.90
16907;DHT22;8570;52.380;4.654;2023-06-22T23:20:14;18.90;99.90
16907;DHT22;8570;52.380;4.654;2023-06-22T23:25:24;18.90;99.90
16907;DHT22;8570;52.380;4.654;2023-06-22T23:30:33;18.80;99.90
16907;DHT22;8570;52.380;4.654;2023-06-22T23:35:59;18.80;99.90
16907;DHT22;8570;52.380;4.654;2023-06-22T23:41:11;18.70;99.90
16907;DHT22;8570;52.380;4.654;2023-06-22T23:46:19;18.70;99.90
16907;DHT22;8570;52.380;4.654;2023-06-22T23:51:37;18.60;99.90
16907;DHT22;8570;52.380;4.654;2023-06-22T23:56:44;18.60;99.90
